Time;durP1;ratioP1;P1;durP2;ratioP2;P2;SDS_P1;SDS_P2;PMS_P1;PMS_P2;Temp;Humidity;BMP_temperature;BMP_pressure;BME280_temperature;BME280_humidity;BME280_pressure;Samples;Min_cycle;Max_cycle;Signal;HPM_P1;HPM_P2
2022/10/14 00:00:52;;;;;;;9.03;6.43;;;12.80;99.90;;;;;;6249132;22;20227;-47
2022/10/14 00:03:17;;;;;;;7.47;5.93;;;12.80;99.90;;;;;;6248838;22;20481;-48
2022/10/14 00:05:43;;;;;;;12.23;6.10;;;12.80;99.90;;;;;;6248711;22;20206;-48
2022/10/14 00:08:10;;;;;;;10.27;6.17;;;12.80;99.90;;;;;;6248566;22;20199;-47
2022/10/14 00:10:37;;;;;;;8.17;6.13;;;12.80;99.90;;;;;;6248655;22;20163;-49
2022/10/14 00:13:03;;;;;;;10.00;6.23;;;12.80;99.90;;;;;;6248050;22;20156;-47
2022/10/14 00:15:29;;;;;;;8.13;6.07;;;12.80;99.90;;;;;;6248623;22;20166;-47
2022/10/14 00:17:55;;;;;;;9.20;6.23;;;12.90;99.90;;;;;;6248287;22;20633;-48
2022/10/14 00:20:20;;;;;;;9.10;6.33;;;12.80;99.90;;;;;;6248310;22;20161;-48
2022/10/14 00:22:46;;;;;;;7.37;5.53;;;12.80;99.90;;;;;;6248164;22;20155;-49
2022/10/14 00:25:11;;;;;;;9.27;6.10;;;12.80;99.90;;;;;;6248130;22;20454;-47
2022/10/14 00:27:37;;;;;;;11.60;5.53;;;12.80;99.90;;;;;;6248737;22;20515;-48
2022/10/14 00:30:03;;;;;;;8.87;5.80;;;12.80;99.90;;;;;;6248860;22;20571;-47
2022/10/14 00:32:29;;;;;;;7.50;5.57;;;12.80;99.90;;;;;;6247714;22;20159;-49
2022/10/14 00:34:54;;;;;;;9.37;5.50;;;12.90;99.90;;;;;;6248614;22;20628;-48
2022/10/14 00:37:20;;;;;;;6.73;5.00;;;12.80;99.90;;;;;;6248454;22;20171;-48
2022/10/14 00:39:45;;;;;;;5.03;4.53;;;12.80;99.90;;;;;;6248150;22;20230;-47
2022/10/14 00:42:13;;;;;;;6.37;5.30;;;12.90;99.90;;;;;;6248002;22;20561;-48
2022/10/14 00:44:41;;;;;;;6.40;4.90;;;12.80;99.90;;;;;;6248187;22;20156;-47
2022/10/14 00:47:07;;;;;;;5.90;4.90;;;12.90;99.90;;;;;;6247561;22;20257;-47
2022/10/14 00:49:37;;;;;;;6.47;5.20;;;12.80;99.90;;;;;;6247967;22;20167;-48
2022/10/14 00:52:18;;;;;;;7.77;5.33;;;12.80;99.90;;;;;;6248393;22;20539;-47
2022/10/14 00:54:49;;;;;;;8.27;5.07;;;12.80;99.90;;;;;;6248330;22;20230;-47
2022/10/14 00:57:16;;;;;;;7.97;4.67;;;12.90;99.90;;;;;;6247593;22;20653;-41
2022/10/14 00:59:42;;;;;;;7.70;4.90;;;12.90;99.90;;;;;;6247590;22;20151;-40
2022/10/14 01:02:08;;;;;;;6.00;4.70;;;12.90;99.90;;;;;;6248050;22;20179;-39
2022/10/14 01:04:38;;;;;;;5.33;4.27;;;12.90;99.90;;;;;;6247946;22;20613;-40
2022/10/14 01:07:30;;;;;;;4.80;4.30;;;12.90;99.90;;;;;;6247564;22;20178;-40
2022/10/14 01:10:24;;;;;;;4.57;4.17;;;12.80;99.90;;;;;;6248248;23;20143;-43
2022/10/14 01:13:08;;;;;;;4.27;3.93;;;12.90;99.90;;;;;;6247740;23;20143;-41
2022/10/14 01:16:03;;;;;;;5.90;4.43;;;12.90;99.90;;;;;;6248086;22;20211;-39
2022/10/14 01:18:43;;;;;;;4.33;3.93;;;12.80;99.90;;;;;;6208767;22;20203;-43
2022/10/14 01:21:20;;;;;;;4.40;3.87;;;12.90;99.90;;;;;;6247599;22;20171;-42
2022/10/14 01:24:12;;;;;;;5.10;4.37;;;12.90;99.90;;;;;;6248392;22;20503;-41
2022/10/14 01:26:58;;;;;;;4.57;3.87;;;12.80;99.90;;;;;;6247258;22;20640;-42
2022/10/14 01:30:19;;;;;;;6.60;4.30;;;12.90;99.90;;;;;;6247850;22;20186;-42
2022/10/14 01:32:54;;;;;;;3.87;3.47;;;12.90;99.90;;;;;;6154783;23;20164;-42
2022/10/14 01:35:30;;;;;;;4.57;3.20;;;12.90;99.90;;;;;;6155070;23;20165;-42
2022/10/14 01:38:03;;;;;;;5.33;3.70;;;12.90;99.90;;;;;;6211018;22;20655;-40
2022/10/14 01:40:48;;;;;;;3.90;3.60;;;12.90;99.90;;;;;;6247786;22;20574;-42
2022/10/14 01:43:17;;;;;;;3.97;2.90;;;12.90;99.90;;;;;;6247768;22;20142;-42
2022/10/14 01:45:46;;;;;;;3.53;3.23;;;12.90;99.90;;;;;;6247916;22;20182;-41
2022/10/14 01:48:16;;;;;;;6.87;3.60;;;12.90;99.90;;;;;;6247831;22;20266;-44
2022/10/14 01:50:44;;;;;;;3.73;3.20;;;12.80;99.90;;;;;;6247966;22;20144;-42
2022/10/14 01:53:21;;;;;;;4.50;3.30;;;12.90;99.90;;;;;;6247644;22;20582;-41
2022/10/14 01:55:49;;;;;;;3.43;3.13;;;12.90;99.90;;;;;;6247845;22;20586;-48
2022/10/14 01:58:18;;;;;;;4.17;3.07;;;12.80;99.90;;;;;;6247932;22;20271;-43
2022/10/14 02:00:46;;;;;;;5.20;2.97;;;12.80;99.90;;;;;;6253154;22;20179;-43
2022/10/14 02:03:12;;;;;;;4.27;3.27;;;12.90;99.90;;;;;;6252670;22;20156;-42
2022/10/14 02:05:47;;;;;;;3.23;2.73;;;12.80;99.90;;;;;;6248209;22;20167;-41
2022/10/14 02:08:38;;;;;;;3.70;2.73;;;12.90;99.90;;;;;;6248119;22;20171;-43
2022/10/14 02:11:13;;;;;;;2.80;2.60;;;12.90;99.90;;;;;;6247780;23;20179;-40
2022/10/14 02:13:58;;;;;;;3.30;2.90;;;12.90;99.90;;;;;;6248104;22;20140;-46
2022/10/14 02:16:35;;;;;;;3.57;2.67;;;12.90;99.90;;;;;;6247165;22;20136;-45
2022/10/14 02:19:36;;;;;;;3.10;2.80;;;12.90;99.90;;;;;;6247552;22;20143;-45
2022/10/14 02:22:23;;;;;;;2.53;2.33;;;12.90;99.90;;;;;;6247141;22;20175;-46
2022/10/14 02:24:55;;;;;;;3.07;2.60;;;12.90;99.90;;;;;;6247305;22;20144;-47
2022/10/14 02:27:24;;;;;;;4.37;3.07;;;12.90;99.90;;;;;;6247157;22;20617;-46
2022/10/14 02:29:51;;;;;;;4.20;3.17;;;12.90;99.90;;;;;;6246573;22;20182;-46
2022/10/14 02:32:18;;;;;;;3.60;3.30;;;12.90;99.90;;;;;;6246739;22;20238;-45
2022/10/14 02:34:48;;;;;;;4.83;3.33;;;12.90;99.90;;;;;;6246817;22;20159;-46
2022/10/14 02:37:15;;;;;;;4.13;3.57;;;12.90;99.90;;;;;;6246886;22;20182;-46
2022/10/14 02:39:46;;;;;;;4.03;3.63;;;12.90;99.90;;;;;;6246595;22;20493;-45
2022/10/14 02:42:12;;;;;;;4.50;4.10;;;12.90;99.90;;;;;;6246743;22;20176;-45
2022/10/14 02:44:37;;;;;;;3.67;3.37;;;12.90;99.90;;;;;;6247003;22;20461;-45
2022/10/14 02:47:03;;;;;;;4.00;3.70;;;12.90;99.90;;;;;;6246404;22;20202;-46
2022/10/14 02:49:29;;;;;;;4.40;4.00;;;12.90;99.90;;;;;;6246480;22;20632;-47
2022/10/14 02:51:54;;;;;;;5.17;3.60;;;12.90;99.90;;;;;;6246940;22;20213;-46
2022/10/14 02:54:20;;;;;;;6.77;4.27;;;12.90;99.90;;;;;;6244802;23;20198;-46
2022/10/14 02:56:45;;;;;;;4.47;3.73;;;12.90;99.90;;;;;;6246440;22;20171;-45
2022/10/14 02:59:11;;;;;;;3.90;3.47;;;12.90;99.90;;;;;;6246673;22;20592;-46
2022/10/14 03:01:36;;;;;;;8.27;4.27;;;12.90;99.90;;;;;;6246486;22;20183;-46
2022/10/14 03:04:02;;;;;;;4.83;4.33;;;12.90;99.90;;;;;;6246700;22;20159;-46
2022/10/14 03:06:28;;;;;;;6.67;4.27;;;12.90;99.90;;;;;;6246320;22;20517;-44
2022/10/14 03:08:53;;;;;;;6.47;4.70;;;12.90;99.90;;;;;;6247242;22;20480;-47
2022/10/14 03:11:19;;;;;;;8.47;5.20;;;12.90;99.90;;;;;;6246386;22;20162;-45
2022/10/14 03:13:44;;;;;;;7.07;4.63;;;12.90;99.90;;;;;;6247153;22;20152;-46
2022/10/14 03:16:10;;;;;;;6.53;5.03;;;12.90;99.90;;;;;;6246605;22;20278;-47
2022/10/14 03:18:36;;;;;;;6.87;4.43;;;12.90;99.90;;;;;;6246244;22;20506;-45
2022/10/14 03:21:01;;;;;;;7.93;5.07;;;12.90;99.90;;;;;;6246702;22;20186;-47
2022/10/14 03:23:27;;;;;;;7.73;4.73;;;12.90;99.90;;;;;;6244838;23;20155;-44
2022/10/14 03:25:52;;;;;;;7.23;5.17;;;12.90;99.90;;;;;;6247006;22;20187;-45
2022/10/14 03:28:18;;;;;;;6.73;5.37;;;12.90;99.90;;;;;;6246944;22;20199;-45
2022/10/14 03:30:44;;;;;;;7.13;4.63;;;12.90;99.90;;;;;;6250025;22;20158;-47
2022/10/14 03:33:09;;;;;;;7.93;4.57;;;12.90;99.90;;;;;;6250465;22;20190;-48
2022/10/14 03:35:35;;;;;;;7.23;4.70;;;12.90;99.90;;;;;;6250539;22;20155;-45
2022/10/14 03:38:02;;;;;;;7.33;5.30;;;12.90;99.90;;;;;;6250050;22;20613;-46
2022/10/14 03:40:28;;;;;;;6.30;4.93;;;12.90;99.90;;;;;;6249831;22;20156;-45
2022/10/14 03:42:58;;;;;;;8.70;5.27;;;12.80;99.90;;;;;;6249971;22;20660;-46
2022/10/14 03:45:23;;;;;;;8.20;5.17;;;12.80;99.90;;;;;;6250122;22;20159;-46
2022/10/14 03:47:49;;;;;;;8.43;5.27;;;12.90;99.90;;;;;;6249586;22;20254;-47
2022/10/14 03:50:15;;;;;;;5.93;5.10;;;12.80;99.90;;;;;;6250059;22;20159;-45
2022/10/14 03:52:41;;;;;;;6.60;5.17;;;12.80;99.90;;;;;;6250338;22;20166;-44
2022/10/14 03:55:07;;;;;;;8.07;5.43;;;12.80;99.90;;;;;;6250065;22;20186;-47
2022/10/14 03:57:33;;;;;;;6.17;4.70;;;12.80;99.90;;;;;;6249766;22;20225;-46
2022/10/14 03:59:58;;;;;;;6.80;5.40;;;12.80;99.90;;;;;;6249719;22;20155;-45
2022/10/14 04:02:24;;;;;;;9.00;5.07;;;12.80;99.90;;;;;;6249718;22;20186;-46
2022/10/14 04:04:49;;;;;;;7.67;5.40;;;12.80;99.90;;;;;;6250040;22;20491;-47
2022/10/14 04:07:15;;;;;;;8.57;5.40;;;12.80;99.90;;;;;;6249749;22;20171;-46
2022/10/14 04:09:41;;;;;;;11.70;4.80;;;12.80;99.90;;;;;;6247926;23;20183;-47
2022/10/14 04:12:06;;;;;;;6.63;4.73;;;12.80;99.90;;;;;;6250123;22;20158;-47
2022/10/14 04:14:32;;;;;;;7.33;4.70;;;12.80;99.90;;;;;;6250191;22;20160;-44
2022/10/14 04:16:58;;;;;;;6.67;5.10;;;12.80;99.90;;;;;;6247993;23;20651;-47
2022/10/14 04:19:23;;;;;;;10.30;4.53;;;12.80;99.90;;;;;;6249843;22;20159;-46
2022/10/14 04:21:49;;;;;;;12.10;5.07;;;12.80;99.90;;;;;;6249863;22;20225;-45
2022/10/14 04:24:15;;;;;;;6.97;4.60;;;12.80;99.90;;;;;;6249450;22;20482;-45
2022/10/14 04:26:40;;;;;;;9.70;4.50;;;12.80;99.90;;;;;;6249565;22;20194;-45
2022/10/14 04:29:06;;;;;;;5.47;4.60;;;12.80;99.90;;;;;;6250322;22;20582;-46
2022/10/14 04:31:32;;;;;;;5.23;4.23;;;12.90;99.90;;;;;;6249403;22;20159;-46
2022/10/14 04:33:57;;;;;;;8.57;5.20;;;12.80;99.90;;;;;;6247905;23;20156;-46
2022/10/14 04:36:23;;;;;;;6.77;4.47;;;12.80;99.90;;;;;;6249394;22;20213;-45
2022/10/14 04:38:48;;;;;;;5.20;4.70;;;12.80;99.90;;;;;;6249468;22;20467;-45
2022/10/14 04:41:14;;;;;;;6.37;4.73;;;12.80;99.90;;;;;;6247931;22;20176;-47
2022/10/14 04:43:40;;;;;;;8.60;5.43;;;12.80;99.90;;;;;;6247940;22;20155;-47
2022/10/14 04:46:05;;;;;;;7.13;5.47;;;12.80;99.90;;;;;;6248138;22;20197;-47
2022/10/14 04:48:31;;;;;;;6.07;5.27;;;12.90;99.90;;;;;;6248103;22;20203;-46
2022/10/14 04:50:57;;;;;;;7.47;5.70;;;12.80;99.90;;;;;;6248469;22;20481;-45
2022/10/14 04:53:22;;;;;;;7.67;5.60;;;12.80;99.90;;;;;;6247951;22;20242;-44
2022/10/14 04:55:48;;;;;;;7.10;4.80;;;12.70;99.90;;;;;;6248073;22;20163;-45
2022/10/14 04:58:15;;;;;;;5.83;5.23;;;12.80;99.90;;;;;;6247679;22;20182;-45
2022/10/14 05:00:41;;;;;;;6.97;5.40;;;12.80;99.90;;;;;;6248060;22;20183;-48
2022/10/14 05:03:07;;;;;;;7.87;5.00;;;12.70;99.90;;;;;;6248579;22;20250;-48
2022/10/14 05:05:32;;;;;;;7.33;4.97;;;12.80;99.90;;;;;;6247735;22;20155;-44
2022/10/14 05:07:58;;;;;;;6.77;5.07;;;12.80;99.90;;;;;;6247532;22;20578;-45
2022/10/14 05:10:24;;;;;;;8.83;5.37;;;12.80;99.90;;;;;;6247634;22;20266;-46
2022/10/14 05:12:49;;;;;;;6.37;5.00;;;12.80;99.90;;;;;;6248037;22;20247;-47
2022/10/14 05:15:15;;;;;;;6.20;4.67;;;12.80;99.90;;;;;;6248159;22;20140;-49
2022/10/14 05:17:43;;;;;;;8.47;4.50;;;12.70;99.90;;;;;;6247495;22;20179;-48
2022/10/14 05:20:10;;;;;;;7.77;4.53;;;12.70;99.90;;;;;;6247381;22;20170;-48
2022/10/14 05:22:35;;;;;;;6.07;4.77;;;12.70;99.90;;;;;;6247818;22;20187;-43
2022/10/14 05:25:01;;;;;;;6.40;4.47;;;12.80;99.90;;;;;;6247676;22;20159;-42
2022/10/14 05:27:26;;;;;;;7.20;4.20;;;12.70;99.90;;;;;;6247734;22;20215;-42
2022/10/14 05:29:52;;;;;;;6.03;4.60;;;12.70;99.90;;;;;;6247862;22;20156;-44
2022/10/14 05:32:17;;;;;;;6.83;4.40;;;12.70;99.90;;;;;;6247284;22;20719;-43
2022/10/14 05:34:43;;;;;;;6.23;4.17;;;12.70;99.90;;;;;;6247628;22;20497;-40
2022/10/14 05:37:09;;;;;;;6.80;4.43;;;12.70;99.90;;;;;;6247629;22;20613;-43
2022/10/14 05:39:34;;;;;;;7.77;4.37;;;12.80;99.90;;;;;;6247054;22;20156;-39
2022/10/14 05:42:00;;;;;;;5.27;4.57;;;12.70;99.90;;;;;;6247411;22;20180;-42
2022/10/14 05:44:25;;;;;;;9.03;4.80;;;12.70;99.90;;;;;;6247645;22;20527;-43
2022/10/14 05:46:51;;;;;;;5.63;4.10;;;12.70;99.90;;;;;;6247701;22;20678;-44
2022/10/14 05:49:17;;;;;;;7.50;4.10;;;12.80;99.90;;;;;;6247403;22;20225;-44
2022/10/14 05:51:42;;;;;;;5.17;3.70;;;12.80;99.90;;;;;;6247263;22;20167;-42
2022/10/14 05:54:08;;;;;;;4.50;3.83;;;12.80;99.90;;;;;;6247325;22;20152;-42
2022/10/14 05:56:33;;;;;;;6.97;3.93;;;12.80;99.90;;;;;;6247195;22;20543;-40
2022/10/14 06:01:33;;;;;;;6.33;3.80;;;12.80;99.90;;;;;;6247688;23;20195;-44
2022/10/14 06:04:02;;;;;;;5.17;3.40;;;12.80;99.90;;;;;;6245932;23;20148;-44
2022/10/14 06:06:28;;;;;;;8.53;3.60;;;12.80;99.90;;;;;;6245526;23;20163;-44
2022/10/14 06:08:55;;;;;;;4.70;3.70;;;12.80;99.90;;;;;;6247149;22;20179;-43
2022/10/14 06:11:21;;;;;;;6.10;3.53;;;12.80;99.90;;;;;;6247232;22;20213;-46
2022/10/14 06:13:46;;;;;;;5.50;3.40;;;12.80;99.90;;;;;;6248115;22;20155;-46
2022/10/14 06:16:12;;;;;;;3.13;2.83;;;12.80;99.90;;;;;;6248039;22;20585;-48
2022/10/14 06:18:38;;;;;;;5.27;2.80;;;12.80;99.90;;;;;;6247726;22;20210;-47
2022/10/14 06:21:05;;;;;;;4.20;2.87;;;12.90;99.90;;;;;;6245505;23;20190;-47
2022/10/14 06:23:31;;;;;;;5.70;2.33;;;12.90;99.90;;;;;;6245413;23;20159;-46
2022/10/14 06:25:56;;;;;;;5.93;2.40;;;12.90;99.90;;;;;;6245506;23;20160;-47
2022/10/14 06:28:22;;;;;;;3.63;2.50;;;12.90;99.90;;;;;;6246502;22;20174;-47
2022/10/14 06:30:54;;;;;;;8.90;3.00;;;12.90;99.90;;;;;;6245350;23;20186;-47
2022/10/14 06:33:20;;;;;;;3.07;2.50;;;12.90;99.90;;;;;;6244990;23;20185;-49
2022/10/14 06:35:46;;;;;;;2.60;2.40;;;12.90;99.90;;;;;;6246330;23;20158;-47
2022/10/14 06:38:12;;;;;;;2.60;2.40;;;12.90;99.90;;;;;;6247700;22;20179;-45
2022/10/14 06:40:38;;;;;;;6.13;2.57;;;13.00;99.90;;;;;;6245186;23;20163;-47
2022/10/14 06:43:04;;;;;;;4.93;2.47;;;13.00;99.90;;;;;;6245601;23;20506;-47
2022/10/14 06:45:29;;;;;;;5.53;2.90;;;13.00;99.90;;;;;;6244887;23;20213;-47
2022/10/14 06:47:55;;;;;;;2.90;2.30;;;13.00;99.90;;;;;;6246455;22;20195;-48
2022/10/14 06:50:21;;;;;;;2.90;2.60;;;13.00;99.90;;;;;;6246480;22;20152;-46
2022/10/14 06:52:47;;;;;;;3.13;2.60;;;12.90;99.90;;;;;;6245793;23;20576;-47
2022/10/14 06:55:14;;;;;;;3.43;2.97;;;13.00;99.90;;;;;;6246809;22;20477;-47
2022/10/14 06:57:40;;;;;;;5.67;2.50;;;13.00;99.90;;;;;;6246611;22;20201;-47
2022/10/14 07:00:08;;;;;;;2.90;2.43;;;13.10;99.90;;;;;;6246640;22;20242;-47
2022/10/14 07:02:33;;;;;;;4.33;2.90;;;13.10;99.90;;;;;;6246383;22;20556;-47
2022/10/14 07:04:59;;;;;;;2.80;2.40;;;13.10;99.90;;;;;;6244378;23;20156;-48
2022/10/14 07:07:24;;;;;;;10.10;3.57;;;13.10;99.90;;;;;;6246210;22;20178;-47
2022/10/14 07:09:50;;;;;;;3.57;2.70;;;13.10;99.90;;;;;;6246314;22;20186;-48
2022/10/14 07:12:16;;;;;;;3.97;3.20;;;13.20;99.90;;;;;;6246594;22;20155;-47
2022/10/14 07:14:41;;;;;;;4.00;2.93;;;13.20;99.90;;;;;;6246469;22;20163;-47
2022/10/14 07:17:08;;;;;;;4.27;2.90;;;13.30;99.90;;;;;;6247172;22;20180;-47
2022/10/14 07:19:33;;;;;;;4.23;2.57;;;13.30;99.90;;;;;;6246697;22;20155;-47
2022/10/14 07:21:59;;;;;;;4.23;2.50;;;13.30;99.90;;;;;;6245175;23;20179;-46
2022/10/14 07:24:25;;;;;;;3.13;2.43;;;13.30;99.90;;;;;;6246169;22;20155;-47
2022/10/14 07:26:50;;;;;;;4.10;2.67;;;13.40;99.90;;;;;;6244491;23;20509;-46
2022/10/14 07:29:16;;;;;;;4.00;2.33;;;13.40;99.90;;;;;;6244622;23;20159;-48
2022/10/14 07:31:42;;;;;;;5.23;3.00;;;13.40;99.90;;;;;;6246206;22;20159;-49
2022/10/14 07:34:08;;;;;;;3.50;2.50;;;13.40;99.90;;;;;;6246255;22;20155;-46
2022/10/14 07:36:33;;;;;;;4.30;2.33;;;13.50;99.90;;;;;;6247201;22;20202;-47
2022/10/14 07:38:59;;;;;;;5.97;2.27;;;13.50;99.90;;;;;;6244573;23;20164;-48
2022/10/14 07:41:26;;;;;;;3.73;2.70;;;13.50;99.90;;;;;;6244715;23;20179;-47
2022/10/14 07:44:02;;;;;;;2.73;2.13;;;13.50;99.90;;;;;;6244488;23;20155;-48
2022/10/14 07:46:31;;;;;;;4.67;2.50;;;13.50;99.90;;;;;;6244587;23;20473;-46
2022/10/14 07:48:58;;;;;;;3.17;2.30;;;13.50;99.90;;;;;;6246253;22;20155;-48
2022/10/14 07:51:25;;;;;;;2.40;2.07;;;13.60;99.90;;;;;;6246094;22;20155;-47
2022/10/14 07:53:51;;;;;;;3.20;2.40;;;13.60;99.90;;;;;;6244522;23;20164;-47
2022/10/14 07:56:17;;;;;;;3.13;2.23;;;13.60;99.90;;;;;;6244488;23;20159;-47
2022/10/14 07:58:43;;;;;;;6.63;2.97;;;13.70;99.90;;;;;;6244744;23;20186;-47
2022/10/14 08:01:09;;;;;;;3.70;2.50;;;13.70;99.90;;;;;;6245784;23;20187;-49
2022/10/14 08:03:35;;;;;;;3.77;2.33;;;13.70;99.90;;;;;;6246630;22;20162;-48
2022/10/14 08:06:02;;;;;;;3.70;2.50;;;13.70;99.90;;;;;;6246873;22;20181;-46
2022/10/14 08:08:29;;;;;;;2.50;2.30;;;13.70;99.90;;;;;;6246682;22;20246;-47
2022/10/14 08:11:07;;;;;;;3.27;2.57;;;13.70;99.90;;;;;;6246575;22;20160;-48
2022/10/14 08:13:34;;;;;;;3.87;2.50;;;13.70;99.90;;;;;;6246628;22;20486;-47
2022/10/14 08:16:00;;;;;;;3.30;2.47;;;13.70;99.90;;;;;;6247606;22;20269;-46
2022/10/14 08:18:25;;;;;;;8.00;2.73;;;13.70;99.90;;;;;;6246367;23;20203;-47
2022/10/14 08:20:51;;;;;;;3.13;2.37;;;13.70;99.90;;;;;;6246300;23;20179;-48
2022/10/14 08:23:17;;;;;;;4.23;2.43;;;13.80;99.90;;;;;;6248277;22;20152;-48
2022/10/14 08:25:43;;;;;;;2.73;2.00;;;13.80;99.90;;;;;;6248641;22;20183;-47
2022/10/14 08:28:09;;;;;;;6.17;3.20;;;13.80;99.90;;;;;;6248300;22;20506;-47
2022/10/14 08:30:34;;;;;;;2.87;2.43;;;13.90;99.90;;;;;;6246386;23;20160;-48
2022/10/14 08:33:00;;;;;;;3.20;2.50;;;13.90;99.90;;;;;;6246187;23;20166;-49
2022/10/14 08:35:26;;;;;;;3.03;2.30;;;13.90;99.90;;;;;;6246254;23;20159;-47
2022/10/14 08:38:00;;;;;;;6.30;2.40;;;14.00;99.90;;;;;;6246940;23;20637;-47
2022/10/14 08:40:32;;;;;;;4.43;2.37;;;14.00;99.90;;;;;;6246453;23;20617;-47
2022/10/14 08:43:03;;;;;;;3.83;2.40;;;14.10;99.90;;;;;;6248080;22;20659;-47
2022/10/14 08:45:37;;;;;;;2.40;2.20;;;14.10;99.90;;;;;;6220890;23;20248;-48
2022/10/14 08:48:16;;;;;;;6.40;3.03;;;14.10;99.90;;;;;;6246212;23;20625;-48
2022/10/14 08:50:54;;;;;;;5.70;2.47;;;14.10;99.90;;;;;;6248256;22;20148;-48
2022/10/14 08:53:33;;;;;;;4.70;2.57;;;14.20;99.90;;;;;;6248376;22;20533;-43
2022/10/14 08:56:00;;;;;;;4.83;2.47;;;14.20;99.90;;;;;;6247689;22;20144;-44
2022/10/14 08:58:42;;;;;;;4.40;2.57;;;14.20;99.90;;;;;;6245891;23;20180;-42
2022/10/14 09:01:17;;;;;;;5.47;2.60;;;14.30;99.90;;;;;;6248646;22;20249;-41
2022/10/14 09:03:43;;;;;;;2.63;2.37;;;14.30;99.90;;;;;;6246829;23;20238;-43
2022/10/14 09:06:24;;;;;;;6.57;3.23;;;14.40;99.90;;;;;;6247354;23;20155;-40
2022/10/14 09:08:55;;;;;;;4.63;3.60;;;14.40;99.90;;;;;;6249001;22;20139;-39
2022/10/14 09:11:30;;;;;;;7.13;4.40;;;14.50;99.90;;;;;;6246839;23;20209;-42
2022/10/14 09:13:59;;;;;;;6.33;4.43;;;14.50;99.90;;;;;;6246095;23;20152;-44
2022/10/14 09:16:28;;;;;;;7.93;4.27;;;14.50;99.90;;;;;;6246137;23;20160;-42
2022/10/14 09:18:57;;;;;;;6.23;5.17;;;14.60;99.90;;;;;;6247486;22;20655;-41
2022/10/14 09:21:28;;;;;;;6.47;4.30;;;14.60;99.90;;;;;;6245548;23;20183;-40
2022/10/14 09:24:12;;;;;;;5.27;4.20;;;14.60;99.90;;;;;;6245794;23;20186;-43
2022/10/14 09:26:41;;;;;;;6.33;3.60;;;14.60;99.90;;;;;;6245099;23;20160;-40
2022/10/14 09:29:42;;;;;;;7.43;3.83;;;14.70;99.90;;;;;;6247796;22;20231;-42
2022/10/14 09:32:30;;;;;;;6.07;4.07;;;14.70;99.90;;;;;;6246426;23;20258;-43
2022/10/14 09:34:57;;;;;;;4.20;3.27;;;14.80;99.90;;;;;;6245702;23;20601;-42
2022/10/14 09:37:35;;;;;;;5.83;4.00;;;14.80;99.90;;;;;;6245270;23;20206;-43
2022/10/14 09:40:17;;;;;;;5.23;3.43;;;14.80;99.90;;;;;;6245552;23;20163;-42
2022/10/14 09:42:59;;;;;;;6.13;4.13;;;14.90;99.90;;;;;;6247327;22;20163;-40
2022/10/14 09:45:44;;;;;;;6.17;4.30;;;14.90;99.90;;;;;;6245340;23;20155;-49
2022/10/14 09:48:16;;;;;;;7.23;4.30;;;15.00;99.90;;;;;;6247023;22;20612;-50
2022/10/14 09:50:47;;;;;;;9.23;5.30;;;15.00;99.90;;;;;;6247129;22;20148;-48
2022/10/14 09:53:23;;;;;;;6.63;3.80;;;15.00;99.90;;;;;;6246760;22;20588;-48
2022/10/14 09:55:53;;;;;;;6.90;3.77;;;15.10;99.90;;;;;;6246998;22;20139;-49
2022/10/14 09:58:31;;;;;;;9.57;4.83;;;15.10;99.90;;;;;;6246456;22;20176;-48
2022/10/14 10:01:00;;;;;;;8.50;3.97;;;15.10;99.90;;;;;;6246454;22;20195;-50
2022/10/14 10:03:31;;;;;;;5.93;2.97;;;15.20;99.90;;;;;;6246860;22;20178;-48
2022/10/14 10:06:08;;;;;;;6.87;3.43;;;15.20;99.90;;;;;;6245066;23;20602;-48
2022/10/14 10:08:38;;;;;;;5.77;3.53;;;15.20;99.90;;;;;;6247391;22;20175;-49
2022/10/14 10:11:05;;;;;;;8.80;3.20;;;15.30;99.90;;;;;;6247114;22;20203;-48
2022/10/14 10:13:45;;;;;;;6.00;4.13;;;15.30;99.90;;;;;;6247306;22;20190;-48
2022/10/14 10:16:32;;;;;;;7.07;3.40;;;15.30;99.90;;;;;;6247547;22;20156;-49
2022/10/14 10:19:34;;;;;;;8.47;3.87;;;15.30;99.90;;;;;;6245401;23;20144;-48
2022/10/14 10:22:18;;;;;;;10.53;4.70;;;15.30;99.90;;;;;;6246583;22;20175;-48
2022/10/14 10:24:45;;;;;;;9.27;4.57;;;15.30;99.90;;;;;;6246998;22;20201;-47
2022/10/14 10:27:29;;;;;;;7.67;3.77;;;15.30;99.90;;;;;;6246569;22;20666;-47
2022/10/14 10:29:55;;;;;;;6.87;4.00;;;15.30;99.90;;;;;;6246706;22;20460;-50
2022/10/14 10:32:29;;;;;;;5.70;3.60;;;15.30;99.90;;;;;;6245196;23;20170;-48
2022/10/14 10:35:22;;;;;;;7.60;3.63;;;15.30;99.90;;;;;;6246820;22;20182;-48
2022/10/14 10:37:59;;;;;;;7.73;4.13;;;15.30;99.90;;;;;;6242717;23;20188;-48
2022/10/14 10:40:55;;;;;;;12.53;4.53;;;15.30;99.90;;;;;;6246349;22;20244;-48
2022/10/14 10:43:41;;;;;;;5.13;3.70;;;15.30;99.90;;;;;;6246722;22;20147;-47
2022/10/14 10:46:39;;;;;;;6.87;3.93;;;15.30;99.90;;;;;;6246704;22;20190;-49
2022/10/14 10:49:37;;;;;;;7.13;4.27;;;15.30;99.90;;;;;;6246679;22;20151;-49
2022/10/14 10:52:13;;;;;;;4.80;3.47;;;15.30;99.90;;;;;;6246641;22;20151;-47
2022/10/14 10:55:00;;;;;;;8.47;4.50;;;15.40;99.90;;;;;;6246625;22;20139;-49
2022/10/14 10:57:51;;;;;;;6.00;3.27;;;15.40;99.90;;;;;;6246500;22;20171;-49
2022/10/14 11:00:21;;;;;;;7.80;4.20;;;15.40;99.90;;;;;;6246225;22;20194;-48
2022/10/14 11:03:05;;;;;;;9.27;4.10;;;15.40;99.90;;;;;;6246015;22;20555;-47
2022/10/14 11:06:05;;;;;;;6.53;4.37;;;15.40;99.90;;;;;;6246438;22;20151;-49
2022/10/14 11:12:11;;;;;;;10.40;4.30;;;15.50;99.90;;;;;;6245099;23;20477;-48
2022/10/14 11:14:55;;;;;;;7.43;4.13;;;15.50;99.90;;;;;;6246660;22;20468;-48
2022/10/14 11:17:32;;;;;;;6.77;4.13;;;15.60;99.90;;;;;;6246682;23;20543;-48
2022/10/14 11:20:29;;;;;;;5.90;4.13;;;15.60;99.90;;;;;;6247544;22;20147;-48
2022/10/14 11:23:33;;;;;;;8.47;4.00;;;15.70;99.90;;;;;;6246337;22;20197;-49
2022/10/14 11:26:03;;;;;;;5.73;3.60;;;15.80;99.90;;;;;;6246309;22;20483;-47
2022/10/14 11:28:37;;;;;;;6.97;4.10;;;15.80;99.90;;;;;;6246003;22;20168;-49
2022/10/14 11:31:39;;;;;;;6.90;4.20;;;15.80;99.90;;;;;;6246722;22;20322;-48
2022/10/14 11:34:43;;;;;;;6.87;4.10;;;15.90;99.90;;;;;;6246937;22;20143;-50
2022/10/14 11:37:38;;;;;;;6.97;4.17;;;15.90;99.90;;;;;;6246629;23;20258;-48
2022/10/14 11:40:35;;;;;;;8.90;4.10;;;16.00;99.90;;;;;;6246327;22;20150;-49
2022/10/14 11:43:19;;;;;;;5.73;3.90;;;16.00;99.90;;;;;;6246322;22;20144;-48
2022/10/14 11:45:51;;;;;;;5.73;3.67;;;16.10;99.90;;;;;;6245937;23;20219;-49
2022/10/14 11:48:26;;;;;;;6.40;3.40;;;16.10;99.90;;;;;;6246091;22;20171;-48
2022/10/14 11:51:14;;;;;;;4.67;3.57;;;16.10;99.90;;;;;;6248149;22;20166;-49
2022/10/14 11:53:57;;;;;;;4.13;3.40;;;16.10;99.90;;;;;;6247359;23;20499;-49
2022/10/14 11:56:48;;;;;;;5.60;3.63;;;16.10;99.90;;;;;;6248309;22;20500;-48
2022/10/14 11:59:31;;;;;;;3.10;2.80;;;16.10;99.90;;;;;;6246167;23;20171;-48
2022/10/14 12:30:54;;;;;;;;;;;;;;;;;;;;;
2022/10/14 12:40:28;;;;;;;5.90;2.70;;;16.50;99.90;;;;;;6158468;23;20168;-47
2022/10/14 12:43:28;;;;;;;5.77;2.93;;;16.50;99.90;;;;;;6131889;23;20193;-47
2022/10/14 12:50:18;;;;;;;5.37;3.20;;;16.40;99.90;;;;;;6157089;23;20144;-46
2022/10/14 12:53:16;;;;;;;5.87;3.37;;;16.40;99.90;;;;;;5983971;24;20169;-47
2022/10/14 12:59:31;;;;;;;4.50;2.80;;;16.50;99.90;;;;;;5992797;23;20625;-46
2022/10/14 13:05:54;;;;;;;4.23;2.97;;;16.60;99.90;;;;;;6108697;23;20169;-46
2022/10/14 13:09:03;;;;;;;3.87;2.70;;;16.60;99.90;;;;;;6126375;23;20288;-46
2022/10/14 13:29:18;;;;;;;4.00;2.53;;;16.60;99.90;;;;;;6247957;23;20234;-42
2022/10/14 13:31:59;;;;;;;2.67;2.47;;;16.60;99.90;;;;;;6221590;23;20594;-40
2022/10/14 14:11:02;;;;;;;2.10;1.90;;;16.70;99.90;;;;;;6273307;22;20256;-49
2022/10/14 14:13:44;;;;;;;2.07;1.83;;;16.60;99.90;;;;;;6246379;23;20163;-49
2022/10/14 14:16:26;;;;;;;2.03;1.83;;;16.60;99.90;;;;;;6246805;23;20160;-48
2022/10/14 14:19:05;;;;;;;2.47;2.03;;;16.60;99.90;;;;;;6217132;23;20172;-50
2022/10/14 14:21:44;;;;;;;4.40;2.20;;;16.50;99.90;;;;;;6192892;23;20180;-49
2022/10/14 14:24:36;;;;;;;1.83;1.73;;;16.50;99.90;;;;;;6217577;23;20140;-49
2022/10/14 14:27:11;;;;;;;1.80;1.70;;;16.50;99.90;;;;;;6221944;23;20187;-48
2022/10/14 14:33:38;;;;;;;2.57;2.00;;;16.50;99.90;;;;;;6213622;23;20170;-49
2022/10/14 14:36:17;;;;;;;2.80;1.97;;;16.50;99.90;;;;;;6216466;23;20216;-49
2022/10/14 14:39:04;;;;;;;1.90;1.80;;;16.50;99.90;;;;;;6216048;23;20180;-48
2022/10/14 14:44:42;;;;;;;1.80;1.70;;;16.50;99.90;;;;;;6200773;23;20652;-50
2022/10/14 14:47:11;;;;;;;2.00;1.77;;;16.60;99.90;;;;;;6215567;23;20179;-50
2022/10/14 14:49:44;;;;;;;1.87;1.60;;;16.60;99.90;;;;;;6215687;23;20238;-48
2022/10/14 14:52:15;;;;;;;2.60;2.00;;;16.50;99.90;;;;;;6213627;23;20235;-48
2022/10/14 14:55:09;;;;;;;2.83;1.93;;;16.60;99.90;;;;;;6217604;23;20163;-48
2022/10/14 14:57:35;;;;;;;2.07;1.90;;;16.60;99.90;;;;;;6189543;23;20180;-50
2022/10/14 15:00:06;;;;;;;1.83;1.63;;;16.60;99.90;;;;;;6216032;23;20167;-51
2022/10/14 15:02:33;;;;;;;2.10;1.90;;;16.60;99.90;;;;;;6216419;23;20255;-50
2022/10/14 15:05:05;;;;;;;2.30;1.97;;;16.60;99.90;;;;;;6216185;23;20172;-48
2022/10/14 15:07:31;;;;;;;3.33;2.30;;;16.70;99.90;;;;;;6215990;23;20179;-50